createdAt,value
2018-12-17T00:00:44.728Z,77.20
2018-12-17T00:03:13.097Z,75.47
2018-12-17T00:05:41.909Z,74.50
2018-12-17T00:08:10.709Z,80.85
2018-12-17T00:10:39.100Z,83.42
2018-12-17T00:13:07.496Z,81.42
2018-12-17T00:15:35.877Z,86.87
2018-12-17T00:18:04.243Z,77.15
2018-12-17T00:20:32.639Z,84.77
2018-12-17T00:23:01.381Z,80.42
2018-12-17T00:25:29.752Z,73.00
2018-12-17T00:27:58.088Z,81.87
2018-12-17T00:30:26.515Z,85.85
2018-12-17T00:32:54.869Z,79.30
2018-12-17T00:35:23.211Z,83.05
2018-12-17T00:37:52.866Z,82.40
2018-12-17T00:40:21.217Z,81.78
2018-12-17T00:42:49.580Z,76.37
2018-12-17T00:45:18.186Z,80.77
2018-12-17T00:47:46.590Z,76.67
2018-12-17T00:50:14.974Z,76.95
2018-12-17T00:52:43.361Z,65.97
2018-12-17T00:55:11.920Z,82.57
2018-12-17T00:57:40.296Z,78.90
2018-12-17T01:00:09.951Z,71.30
2018-12-17T01:02:38.316Z,73.42
2018-12-17T01:05:07.062Z,76.02
2018-12-17T01:07:35.539Z,78.65
2018-12-17T01:10:05.276Z,71.22
2018-12-17T01:12:33.624Z,76.37
2018-12-17T01:15:02.009Z,76.62
2018-12-17T01:17:30.496Z,68.05
2018-12-17T01:19:59.801Z,78.97
2018-12-17T01:22:28.159Z,75.92
2018-12-17T01:24:56.539Z,74.47
2018-12-17T01:27:24.952Z,69.80
2018-12-17T01:29:53.429Z,67.03
2018-12-17T01:32:21.796Z,73.70
2018-12-17T01:34:50.156Z,71.77
2018-12-17T01:37:18.504Z,70.65
2018-12-17T01:39:47.016Z,73.72
2018-12-17T01:42:15.356Z,72.12
2018-12-17T01:44:43.739Z,71.97
2018-12-17T01:47:12.076Z,72.35
2018-12-17T01:49:40.439Z,75.42
2018-12-17T01:52:08.843Z,68.22
2018-12-17T01:54:37.278Z,67.15
2018-12-17T01:57:05.683Z,71.40
2018-12-17T01:59:34.118Z,69.22
2018-12-17T02:02:02.538Z,76.47
2018-12-17T02:04:31.001Z,75.65
2018-12-17T02:06:59.323Z,71.33
2018-12-17T02:09:27.716Z,77.10
2018-12-17T02:11:56.240Z,75.35
2018-12-17T02:14:24.603Z,70.72
2018-12-17T02:16:52.931Z,67.80
2018-12-17T02:19:21.980Z,72.10
2018-12-17T02:21:50.343Z,71.35
2018-12-17T02:24:18.699Z,65.95
2018-12-17T02:26:47.038Z,64.32
2018-12-17T02:29:15.576Z,62.90
2018-12-17T02:31:43.943Z,53.10
2018-12-17T02:34:12.327Z,54.42
2018-12-17T02:36:40.674Z,52.45
2018-12-17T02:39:09.675Z,49.45
2018-12-17T02:41:38.016Z,49.18
2018-12-17T02:44:06.708Z,53.17
2018-12-17T02:46:35.036Z,58.65
2018-12-17T02:49:03.419Z,61.25
2018-12-17T02:51:32.391Z,59.25
2018-12-17T02:54:00.767Z,57.88
2018-12-17T02:56:29.117Z,58.58
2018-12-17T02:58:57.535Z,58.65
2018-12-17T03:01:25.892Z,55.43
2018-12-17T03:03:54.236Z,55.52
2018-12-17T03:06:22.620Z,56.00
2018-12-17T03:08:51.006Z,61.70
2018-12-17T03:11:19.639Z,58.63
2018-12-17T03:13:48.028Z,56.58
2018-12-17T03:16:16.368Z,61.02
2018-12-17T03:18:44.838Z,59.30
2018-12-17T03:21:13.187Z,59.53
2018-12-17T03:23:41.531Z,62.43
2018-12-17T03:26:09.936Z,55.83
2018-12-17T03:28:38.295Z,56.55
2018-12-17T03:31:06.641Z,60.35
2018-12-17T03:33:35.147Z,59.77
2018-12-17T03:36:03.477Z,72.75
2018-12-17T03:38:31.869Z,66.47
2018-12-17T03:41:00.299Z,61.30
2018-12-17T03:43:28.623Z,65.03
2018-12-17T03:45:56.985Z,69.87
2018-12-17T03:48:25.346Z,71.30
2018-12-17T03:50:53.697Z,71.60
2018-12-17T03:53:22.034Z,68.07
2018-12-17T03:55:50.377Z,74.70
2018-12-17T03:58:18.847Z,82.80
2018-12-17T04:00:47.397Z,70.83
2018-12-17T04:03:15.719Z,71.57
2018-12-17T04:05:44.084Z,67.35
2018-12-17T04:08:12.435Z,70.52
2018-12-17T04:10:40.824Z,72.40
2018-12-17T04:13:09.159Z,65.85
2018-12-17T04:15:37.863Z,65.78
2018-12-17T04:18:06.200Z,63.40
2018-12-17T04:20:34.583Z,68.85
2018-12-17T04:23:02.915Z,66.90
2018-12-17T04:25:31.277Z,65.05
2018-12-17T04:27:59.612Z,60.75
2018-12-17T04:30:28.063Z,61.53
2018-12-17T04:32:56.420Z,61.08
2018-12-17T04:35:24.885Z,58.48
2018-12-17T04:37:53.343Z,59.13
2018-12-17T04:40:21.666Z,56.55
2018-12-17T04:42:50.039Z,66.95
2018-12-17T04:45:18.501Z,59.58
2018-12-17T04:47:46.859Z,69.60
2018-12-17T04:50:15.196Z,68.42
2018-12-17T04:52:43.727Z,65.52
2018-12-17T04:55:12.068Z,65.90
2018-12-17T04:57:40.744Z,71.77
2018-12-17T05:00:09.751Z,63.87
2018-12-17T05:02:38.144Z,61.80
2018-12-17T05:05:06.503Z,67.87
2018-12-17T05:07:34.851Z,68.37
2018-12-17T05:10:03.495Z,61.25
2018-12-17T05:12:31.940Z,67.87
2018-12-17T05:15:00.256Z,58.55
2018-12-17T05:17:28.711Z,66.92
2018-12-17T05:19:57.111Z,61.55
2018-12-17T05:22:25.472Z,61.98
2018-12-17T05:24:53.857Z,64.32
2018-12-17T05:27:22.189Z,59.30
2018-12-17T05:29:50.524Z,60.03
2018-12-17T05:32:19.098Z,61.23
2018-12-17T05:34:47.455Z,63.05
2018-12-17T05:37:15.795Z,67.10
2018-12-17T05:39:44.532Z,57.50
2018-12-17T05:42:12.884Z,64.97
2018-12-17T05:44:41.236Z,70.60
2018-12-17T05:47:09.861Z,62.45
2018-12-17T05:49:38.301Z,62.38
2018-12-17T05:52:06.643Z,51.85
2018-12-17T05:54:35.095Z,58.38
2018-12-17T05:57:03.932Z,57.95
2018-12-17T05:59:32.267Z,53.40
2018-12-17T06:02:01.999Z,62.45
2018-12-17T06:04:30.308Z,55.65
2018-12-17T06:06:58.659Z,57.88
2018-12-17T06:09:27.307Z,55.83
2018-12-17T06:11:55.797Z,59.15
2018-12-17T06:14:24.108Z,59.18
2018-12-17T06:16:52.871Z,57.38
2018-12-17T06:19:21.210Z,62.25
2018-12-17T06:21:49.588Z,53.15
2018-12-17T06:24:17.966Z,54.70
2018-12-17T06:26:46.291Z,52.70
2018-12-17T06:29:14.625Z,55.05
2018-12-17T06:31:43.331Z,53.38
2018-12-17T06:34:11.669Z,51.35
2018-12-17T06:36:40.020Z,55.03
2018-12-17T06:39:08.876Z,53.35
2018-12-17T06:41:37.564Z,52.50
2018-12-17T06:44:05.927Z,51.18
2018-12-17T06:46:34.282Z,53.58
2018-12-17T06:49:02.625Z,56.05
2018-12-17T06:51:31.592Z,56.10
2018-12-17T06:53:59.940Z,59.18
2018-12-17T06:56:28.296Z,58.63
2018-12-17T06:58:56.646Z,55.58
2018-12-17T07:01:24.971Z,53.10
2018-12-17T07:03:53.424Z,52.15
2018-12-17T07:06:21.793Z,50.60
2018-12-17T07:08:50.763Z,54.03
2018-12-17T07:11:19.261Z,52.83
2018-12-17T07:13:47.643Z,49.80
2018-12-17T07:16:16.084Z,47.73
2018-12-17T07:18:44.479Z,48.63
2018-12-17T07:21:12.813Z,50.70
2018-12-17T07:23:41.181Z,51.83
2018-12-17T07:26:09.554Z,51.55
2018-12-17T07:28:38.045Z,52.45
2018-12-17T07:31:06.400Z,53.58
2018-12-17T07:33:34.841Z,50.48
2018-12-17T07:36:03.205Z,50.33
2018-12-17T07:38:31.568Z,50.20
2018-12-17T07:40:59.888Z,53.92
2018-12-17T07:43:28.427Z,50.70
2018-12-17T07:45:56.823Z,48.85
2018-12-17T07:48:25.171Z,48.17
2018-12-17T07:50:53.553Z,48.13
2018-12-17T07:53:21.915Z,51.02
2018-12-17T07:55:50.253Z,55.03
2018-12-17T07:58:18.667Z,55.25
2018-12-17T08:00:46.989Z,54.00
2018-12-17T08:03:15.433Z,48.80
2018-12-17T08:05:43.880Z,51.68
2018-12-17T08:08:12.228Z,48.15
2018-12-17T08:10:40.756Z,49.60
2018-12-17T08:13:09.315Z,48.75
2018-12-17T08:15:37.760Z,52.33
2018-12-17T08:18:24.136Z,53.00
2018-12-17T08:20:52.629Z,51.50
2018-12-17T08:23:21.103Z,49.10
2018-12-17T08:25:49.465Z,49.77
2018-12-17T08:28:18.696Z,45.63
2018-12-17T08:30:47.055Z,47.62
2018-12-17T08:33:15.736Z,49.50
2018-12-17T08:35:44.631Z,49.25
2018-12-17T08:38:13.012Z,48.33
2018-12-17T08:40:41.459Z,48.02
2018-12-17T08:43:09.848Z,51.98
2018-12-17T08:45:38.299Z,45.35
2018-12-17T08:48:08.489Z,46.83
2018-12-17T08:50:36.848Z,47.55
2018-12-17T08:53:05.246Z,47.60
2018-12-17T08:55:33.609Z,46.70
2018-12-17T08:58:01.963Z,44.40
2018-12-17T09:00:30.323Z,44.65
2018-12-17T09:02:58.680Z,44.42
2018-12-17T09:05:27.015Z,47.65
2018-12-17T09:07:55.439Z,49.63
2018-12-17T09:10:23.783Z,49.60
2018-12-17T09:12:52.248Z,45.50
2018-12-17T09:15:20.644Z,48.70
2018-12-17T09:17:49.039Z,45.23
2018-12-17T09:20:17.437Z,44.73
2018-12-17T09:22:45.967Z,48.03
2018-12-17T09:25:14.439Z,43.47
2018-12-17T09:27:42.787Z,42.70
2018-12-17T09:30:18.077Z,43.23
2018-12-17T09:32:41.539Z,40.53
2018-12-17T09:35:10.035Z,40.47
2018-12-17T09:37:38.439Z,40.03
2018-12-17T09:40:07.243Z,38.40
2018-12-17T09:42:35.698Z,39.10
2018-12-17T09:45:04.603Z,40.30
2018-12-17T09:47:32.954Z,38.43
2018-12-17T09:50:01.335Z,38.80
2018-12-17T09:52:29.736Z,40.27
2018-12-17T09:54:58.064Z,45.10
2018-12-17T09:57:26.477Z,41.00
2018-12-17T09:59:54.808Z,39.60
2018-12-17T10:02:23.185Z,42.10
2018-12-17T10:04:51.504Z,38.93
2018-12-17T10:07:19.866Z,39.43
2018-12-17T10:09:48.217Z,39.27
2018-12-17T10:12:16.740Z,41.90
2018-12-17T10:14:45.087Z,38.23
2018-12-17T10:17:13.440Z,40.10
2018-12-17T10:19:41.788Z,41.80
2018-12-17T10:22:10.199Z,44.50
2018-12-17T10:24:38.543Z,45.00
2018-12-17T10:27:06.872Z,45.17
2018-12-17T10:29:35.287Z,47.03
2018-12-17T10:32:03.608Z,44.00
2018-12-17T10:34:32.108Z,46.13
2018-12-17T10:37:00.434Z,40.87
2018-12-17T10:39:28.747Z,39.80
2018-12-17T10:41:57.128Z,45.03
2018-12-17T10:44:25.498Z,46.20
2018-12-17T10:46:53.849Z,43.43
2018-12-17T10:49:22.212Z,43.43
2018-12-17T10:51:50.737Z,44.40
2018-12-17T10:54:19.092Z,45.97
2018-12-17T10:56:47.643Z,45.63
2018-12-17T10:59:16.043Z,46.90
2018-12-17T11:02:05.345Z,39.43
2018-12-17T11:04:38.991Z,42.53
2018-12-17T11:07:07.469Z,40.80
2018-12-17T11:09:35.800Z,44.03
2018-12-17T11:12:04.304Z,44.07
2018-12-17T11:14:33.225Z,51.50
2018-12-17T11:17:01.553Z,46.77
2018-12-17T11:19:30.104Z,46.30
2018-12-17T11:21:58.455Z,40.67
2018-12-17T11:24:26.974Z,44.10
2018-12-17T11:26:55.399Z,42.77
2018-12-17T11:29:23.759Z,42.40
2018-12-17T11:31:52.085Z,44.20
2018-12-17T11:34:20.440Z,44.27
2018-12-17T11:36:48.934Z,50.20
2018-12-17T11:39:17.240Z,32.77
2018-12-17T11:41:45.831Z,39.90
2018-12-17T11:44:14.202Z,42.77
2018-12-17T11:46:42.553Z,33.50
2018-12-17T11:49:10.904Z,28.47
2018-12-17T11:51:39.295Z,26.00
2018-12-17T11:54:07.758Z,30.40
2018-12-17T11:57:15.111Z,29.33
2018-12-17T11:59:43.438Z,28.87
2018-12-17T12:02:11.761Z,25.43
2018-12-17T12:04:40.149Z,26.93
2018-12-17T12:07:08.523Z,27.07
2018-12-17T12:09:37.261Z,24.97
2018-12-17T12:12:05.771Z,28.43
2018-12-17T12:14:34.091Z,27.37
2018-12-17T12:17:02.490Z,30.50
2018-12-17T12:19:30.914Z,26.33
2018-12-17T12:21:59.244Z,26.93
2018-12-17T12:24:27.594Z,26.93
2018-12-17T12:26:55.920Z,27.87
2018-12-17T12:29:24.376Z,26.47
2018-12-17T12:31:52.724Z,25.40
2018-12-17T12:34:21.160Z,29.70
2018-12-17T12:36:49.562Z,31.97
2018-12-17T12:39:17.991Z,25.17
2018-12-17T12:41:46.363Z,25.43
2018-12-17T12:44:14.799Z,25.07
2018-12-17T12:46:43.144Z,28.17
2018-12-17T12:49:12.391Z,24.67
2018-12-17T12:51:41.150Z,25.80
2018-12-17T12:54:09.528Z,29.53
2018-12-17T12:56:37.863Z,26.40
2018-12-17T12:59:06.256Z,31.33
2018-12-17T13:01:34.559Z,28.93
2018-12-17T13:04:02.921Z,25.40
2018-12-17T13:06:31.287Z,25.20
2018-12-17T13:08:59.971Z,24.60
2018-12-17T13:11:28.287Z,25.27
2018-12-17T13:13:56.612Z,33.37
2018-12-17T13:16:25.204Z,25.80
2018-12-17T13:18:53.552Z,24.80
2018-12-17T13:21:22.475Z,26.80
2018-12-17T13:23:51.074Z,29.87
2018-12-17T13:26:19.453Z,23.33
2018-12-17T13:28:47.844Z,24.80
2018-12-17T13:31:16.151Z,25.53
2018-12-17T13:33:44.494Z,25.40
2018-12-17T13:36:14.598Z,25.47
2018-12-17T13:38:43.142Z,25.80
2018-12-17T13:41:11.477Z,24.60
2018-12-17T13:43:39.805Z,27.77
2018-12-17T13:46:08.212Z,27.77
2018-12-17T13:48:36.599Z,25.47
2018-12-17T13:51:10.253Z,26.47
2018-12-17T13:53:38.776Z,28.20
2018-12-17T13:56:07.141Z,26.03
2018-12-17T13:58:35.614Z,26.80
2018-12-17T14:01:03.969Z,28.70
2018-12-17T14:03:32.304Z,26.37
2018-12-17T14:06:00.765Z,25.17
2018-12-17T14:08:29.704Z,26.47
2018-12-17T14:10:58.059Z,26.20
2018-12-17T14:13:26.391Z,26.07
2018-12-17T14:15:59.032Z,24.70
2018-12-17T14:18:32.875Z,31.13
2018-12-17T14:21:06.714Z,24.60
2018-12-17T14:23:35.033Z,26.83
2018-12-17T14:26:03.987Z,27.80
2018-12-17T14:28:32.313Z,33.00
2018-12-17T14:31:00.667Z,26.93
2018-12-17T14:33:29.023Z,26.93
2018-12-17T14:36:02.923Z,26.27
2018-12-17T14:38:31.252Z,30.00
2018-12-17T14:40:59.962Z,27.13
2018-12-17T14:43:28.306Z,26.97
2018-12-17T14:45:56.633Z,29.30
2018-12-17T14:48:25.026Z,27.43
2018-12-17T14:50:53.377Z,25.40
2018-12-17T14:53:21.695Z,27.80
2018-12-17T14:55:50.242Z,26.47
2018-12-17T14:58:18.574Z,25.70
2018-12-17T15:00:46.971Z,25.97
2018-12-17T15:03:15.316Z,26.60
2018-12-17T15:05:43.876Z,26.10
2018-12-17T15:08:12.285Z,25.70
2018-12-17T15:10:40.612Z,29.23
2018-12-17T15:13:08.976Z,27.43
2018-12-17T15:15:37.329Z,26.17
2018-12-17T15:18:05.824Z,28.10
2018-12-17T15:20:34.288Z,30.80
2018-12-17T15:23:02.641Z,27.63
2018-12-17T15:25:30.996Z,25.70
2018-12-17T15:27:59.849Z,26.93
2018-12-17T15:30:28.205Z,26.13
2018-12-17T15:32:56.676Z,26.47
2018-12-17T15:35:25.028Z,28.10
2018-12-17T15:37:53.403Z,24.87
2018-12-17T15:40:21.744Z,27.40
2018-12-17T15:42:50.139Z,26.00
2018-12-17T15:45:18.665Z,32.10
2018-12-17T15:47:47.072Z,24.30
2018-12-17T15:50:15.421Z,26.63
2018-12-17T15:52:43.780Z,24.63
2018-12-17T15:55:12.318Z,24.87
2018-12-17T15:57:40.752Z,24.67
2018-12-17T16:00:11.485Z,24.57
2018-12-17T16:02:39.853Z,24.60
2018-12-17T16:05:08.239Z,25.40
2018-12-17T16:07:36.695Z,26.37
2018-12-17T16:10:05.667Z,24.93
2018-12-17T16:12:34.185Z,25.80
2018-12-17T16:15:02.576Z,25.20
2018-12-17T16:17:30.901Z,25.70
2018-12-17T16:19:59.934Z,26.60
2018-12-17T16:22:28.290Z,25.20
2018-12-17T16:24:56.635Z,25.33
2018-12-17T16:27:25.024Z,24.17
2018-12-17T16:29:53.420Z,26.63
2018-12-17T16:32:21.760Z,26.57
2018-12-17T16:34:50.324Z,26.47
2018-12-17T16:37:18.789Z,25.87
2018-12-17T16:39:47.209Z,25.90
2018-12-17T16:42:15.547Z,26.50
2018-12-17T16:44:43.931Z,25.33
2018-12-17T16:47:12.533Z,23.73
2018-12-17T16:49:40.940Z,23.60
2018-12-17T16:52:09.268Z,26.43
2018-12-17T16:54:37.979Z,26.90
2018-12-17T16:57:06.440Z,26.10
2018-12-17T16:59:34.796Z,24.70
2018-12-17T17:02:04.631Z,25.00
2018-12-17T17:04:33.153Z,25.17
2018-12-17T17:07:01.537Z,31.37
2018-12-17T17:09:30.084Z,26.47
2018-12-17T17:11:58.506Z,26.23
2018-12-17T17:14:26.942Z,24.27
2018-12-17T17:16:55.484Z,26.13
2018-12-17T17:19:23.888Z,24.60
2018-12-17T17:21:52.392Z,25.23
2018-12-17T17:24:21.132Z,30.40
2018-12-17T17:26:49.671Z,27.30
2018-12-17T17:29:18.067Z,25.20
2018-12-17T17:31:46.453Z,24.47
2018-12-17T17:34:14.819Z,25.30
2018-12-17T17:36:44.079Z,26.23
2018-12-17T17:39:12.439Z,25.40
2018-12-17T17:41:40.831Z,24.53
2018-12-17T17:44:09.232Z,29.80
2018-12-17T17:46:37.777Z,25.70
2018-12-17T17:49:06.173Z,25.30
2018-12-17T17:51:34.551Z,24.80
2018-12-17T17:54:02.891Z,26.17
2018-12-17T17:56:31.352Z,25.90
2018-12-17T17:58:59.938Z,24.90
2018-12-17T18:01:28.432Z,27.50
2018-12-17T18:03:56.778Z,27.23
2018-12-17T18:06:25.345Z,23.80
2018-12-17T18:08:53.772Z,27.60
2018-12-17T18:11:22.161Z,26.80
2018-12-17T18:13:50.546Z,25.73
2018-12-17T18:16:19.247Z,26.23
2018-12-17T18:18:47.601Z,25.33
2018-12-17T18:21:15.976Z,26.97
2018-12-17T18:23:44.504Z,24.20
2018-12-17T18:26:12.904Z,25.53
2018-12-17T18:28:41.311Z,24.80
2018-12-17T18:31:09.690Z,25.00
2018-12-17T18:33:38.318Z,26.10
2018-12-17T18:36:07.589Z,24.77
2018-12-17T18:38:35.956Z,26.63
2018-12-17T18:41:04.673Z,25.57
2018-12-17T18:43:33.541Z,26.40
2018-12-17T18:46:02.001Z,25.57
2018-12-17T18:48:36.036Z,26.73
2018-12-17T18:51:04.993Z,29.70
2018-12-17T18:53:33.440Z,23.70
2018-12-17T18:56:01.852Z,26.40
2018-12-17T18:58:30.212Z,26.87
2018-12-17T19:00:58.753Z,25.27
2018-12-17T19:03:27.304Z,26.10
2018-12-17T19:05:55.696Z,27.10
2018-12-17T19:08:24.060Z,29.47
2018-12-17T19:10:52.440Z,27.53
2018-12-17T19:13:20.796Z,36.30
2018-12-17T19:15:49.164Z,29.50
2018-12-17T19:18:17.528Z,31.27
2018-12-17T19:20:45.960Z,30.80
2018-12-17T19:23:14.888Z,32.83
2018-12-17T19:25:43.279Z,30.00
2018-12-17T19:28:11.744Z,28.97
2018-12-17T19:30:40.127Z,28.40
2018-12-17T19:33:08.493Z,28.67
2018-12-17T19:35:37.116Z,27.70
2018-12-17T19:38:05.667Z,28.43
2018-12-17T19:40:34.088Z,33.67
2018-12-17T19:43:02.497Z,29.90
2018-12-17T19:45:30.848Z,27.70
2018-12-17T19:47:59.261Z,30.07
2018-12-17T19:50:27.637Z,29.67
2018-12-17T19:52:56.065Z,30.77
2018-12-17T19:55:25.360Z,37.33
2018-12-17T19:57:53.903Z,31.13
2018-12-17T20:00:22.417Z,26.90
2018-12-17T20:02:50.984Z,27.10
2018-12-17T20:05:19.466Z,30.43
2018-12-17T20:07:48.025Z,29.30
2018-12-17T20:10:23.963Z,26.10
2018-12-17T20:12:52.358Z,28.60
2018-12-17T20:15:20.865Z,28.40
2018-12-17T20:17:49.290Z,35.33
2018-12-17T20:20:17.752Z,31.13
2018-12-17T20:22:46.310Z,28.53
2018-12-17T20:25:14.777Z,30.80
2018-12-17T20:27:43.134Z,34.00
2018-12-17T20:30:12.221Z,30.13
2018-12-17T20:32:40.727Z,27.97
2018-12-17T20:35:09.461Z,27.67
2018-12-17T20:37:37.836Z,28.53
2018-12-17T20:40:08.004Z,26.90
2018-12-17T20:42:36.426Z,30.50
2018-12-17T20:45:06.095Z,29.97
2018-12-17T20:47:34.619Z,29.17
2018-12-17T20:50:03.236Z,26.80
2018-12-17T20:52:31.755Z,32.10
2018-12-17T20:55:00.100Z,31.67
2018-12-17T20:57:28.864Z,27.60
2018-12-17T20:59:57.323Z,29.60
2018-12-17T21:02:25.743Z,29.77
2018-12-17T21:04:54.804Z,31.40
2018-12-17T21:07:23.314Z,29.97
2018-12-17T21:09:51.708Z,27.53
2018-12-17T21:12:20.100Z,29.70
2018-12-17T21:14:48.799Z,30.70
2018-12-17T21:17:17.221Z,28.17
2018-12-17T21:19:45.597Z,28.83
2018-12-17T21:22:14.149Z,29.67
2018-12-17T21:24:42.831Z,28.70
2018-12-17T21:27:11.275Z,30.00
2018-12-17T21:29:39.727Z,31.40
2018-12-17T21:32:08.725Z,27.30
2018-12-17T21:34:37.089Z,28.83
2018-12-17T21:37:05.524Z,26.53
2018-12-17T21:39:33.931Z,30.37
2018-12-17T21:42:02.383Z,30.63
2018-12-17T21:44:30.836Z,29.53
2018-12-17T21:46:59.369Z,27.90
2018-12-17T21:49:27.882Z,30.40
2018-12-17T21:51:56.309Z,29.10
2018-12-17T21:54:24.665Z,28.90
2018-12-17T21:56:53.220Z,37.23
2018-12-17T21:59:21.651Z,28.57
2018-12-17T22:01:50.536Z,32.03
2018-12-17T22:04:19.889Z,29.93
2018-12-17T22:06:48.648Z,30.60
2018-12-17T22:09:17.012Z,26.90
2018-12-17T22:11:45.608Z,30.90
2018-12-17T22:14:13.972Z,27.17
2018-12-17T22:16:42.435Z,28.83
2018-12-17T22:19:11.203Z,27.60
2018-12-17T22:21:39.651Z,25.87
2018-12-17T22:24:08.021Z,27.73
2018-12-17T22:26:36.517Z,29.17
2018-12-17T22:29:04.874Z,30.60
2018-12-17T22:31:33.244Z,29.53
2018-12-17T22:34:01.784Z,29.70
2018-12-17T22:36:30.152Z,29.50
2018-12-17T22:38:58.514Z,29.60
2018-12-17T22:41:27.004Z,29.10
2018-12-17T22:43:55.512Z,26.87
2018-12-17T22:46:23.909Z,28.83
2018-12-17T22:48:52.333Z,29.67
2018-12-17T22:51:20.700Z,28.27
2018-12-17T22:53:49.061Z,31.90
2018-12-17T22:56:17.538Z,28.93
2018-12-17T22:58:45.920Z,29.63
2018-12-17T23:01:14.256Z,30.60
2018-12-17T23:03:43.047Z,28.50
2018-12-17T23:06:11.475Z,28.27
2018-12-17T23:08:46.481Z,26.90
2018-12-17T23:11:26.224Z,26.43
2018-12-17T23:14:06.076Z,26.50
2018-12-17T23:16:45.828Z,25.50
2018-12-17T23:19:13.210Z,26.73
2018-12-17T23:21:41.566Z,27.90
2018-12-17T23:24:09.919Z,29.57
2018-12-17T23:26:38.269Z,26.30
2018-12-17T23:29:06.639Z,33.13
2018-12-17T23:31:35.016Z,26.60
2018-12-17T23:34:03.443Z,32.63
2018-12-17T23:36:31.767Z,30.20
2018-12-17T23:39:00.128Z,27.90
2018-12-17T23:41:28.520Z,27.67
2018-12-17T23:43:56.894Z,26.80
2018-12-17T23:46:25.281Z,26.10
2018-12-17T23:48:53.733Z,28.90
2018-12-17T23:51:22.168Z,25.83
2018-12-17T23:53:50.573Z,28.63
2018-12-17T23:56:18.898Z,28.10
2018-12-17T23:58:47.273Z,28.27
